Skip Navigation Links Skip Navigation Links

Current Weather

Heathrow, London

For information only: do not use for flight planning or navigation.
Latest weather
Observation time Tuesday, October 17, 2017 6:50 AM BST
Local time Tuesday, October 17, 2017 7:05 AM BST
Flight conditions Visual Meteorological Conditions
Winds
Wind direction Southwest (220°)
Wind speed 12 mph
Visibility 6.2 mi.
Sky condition
Ceiling unlimited
Temperature 52°F
Dewpoint 45°F
Altimeter 30.09 in.Hg
Derived measurements
Relative humidity 76%
Density altitude -527 ft.
Remarks
Corrected report.
Fully automated report.
No significant changes expected in the next two hours.
METAR COR EGLL 170550Z AUTO 22010KT 9999 NCD 11/07 Q1019 NOSIG

Settings

Location code

InnerDrive.Weather 4.0.6144.1 Release CLR 4.0.30319.36366
Copyright ©2015 Inner Drive Technology. All rights reserved. Portions Copyright ©1986-2015 David Braverman.

Find weather

Site navigation


Skip Navigation Links

Place info

Page info

PayPal - The safer, easier way to pay online!

Return home.

Copyright ©2017 Inner Drive Technology. Purveyors of fine, hand-crafted computer software. Page printed 2017-10-17T06:05:12 UTC.